createdAt,value
2023-04-23T00:02:38.735Z,68.69
2023-04-23T00:05:37.021Z,68.82
2023-04-23T00:08:34.723Z,68.88
2023-04-23T00:11:32.327Z,68.88
2023-04-23T00:14:29.778Z,68.86
2023-04-23T00:17:27.554Z,68.94
2023-04-23T00:20:25.137Z,68.97
2023-04-23T00:23:23.343Z,69.19
2023-04-23T00:26:20.913Z,69.23
2023-04-23T00:29:18.754Z,69.32
2023-04-23T00:32:16.732Z,69.29
2023-04-23T00:35:14.131Z,69.43
2023-04-23T00:38:11.981Z,69.47
2023-04-23T00:41:09.426Z,69.59
2023-04-23T00:44:07.358Z,69.57
2023-04-23T00:47:04.807Z,69.66
2023-04-23T00:50:02.733Z,69.68
2023-04-23T00:53:00.630Z,69.74
2023-04-23T00:55:58.493Z,69.76
2023-04-23T00:58:56.097Z,69.80
2023-04-23T01:01:53.909Z,69.90
2023-04-23T01:04:51.948Z,70.04
2023-04-23T01:07:49.756Z,70.17
2023-04-23T01:10:47.633Z,70.30
2023-04-23T01:13:45.073Z,70.47
2023-04-23T01:16:43.109Z,70.34
2023-04-23T01:19:40.579Z,70.46
2023-04-23T01:22:38.399Z,70.68
2023-04-23T01:25:36.098Z,70.66
2023-04-23T01:28:34.036Z,70.78
2023-04-23T01:31:31.497Z,70.86
2023-04-23T01:34:29.469Z,71.00
2023-04-23T01:37:27.334Z,71.01
2023-04-23T01:40:24.735Z,71.05
2023-04-23T01:43:22.652Z,71.19
2023-04-23T01:46:20.114Z,71.26
2023-04-23T01:49:18.098Z,71.39
2023-04-23T01:52:15.538Z,71.41
2023-04-23T01:55:14.653Z,71.55
2023-04-23T01:58:12.519Z,71.58
2023-04-23T02:01:09.946Z,71.46
2023-04-23T02:04:07.728Z,71.72
2023-04-23T02:07:05.448Z,71.96
2023-04-23T02:10:03.385Z,71.99
2023-04-23T02:13:01.581Z,72.05
2023-04-23T02:15:59.558Z,72.17
2023-04-23T02:18:57.622Z,72.22
2023-04-23T02:21:55.018Z,72.39
2023-04-23T02:24:53.143Z,72.57
2023-04-23T02:27:50.680Z,72.72
2023-04-23T02:30:48.573Z,72.70
2023-04-23T02:33:47.089Z,72.75
2023-04-23T02:36:44.964Z,72.84
2023-04-23T02:39:42.403Z,73.06
2023-04-23T02:42:41.260Z,73.13
2023-04-23T02:45:40.764Z,73.33
2023-04-23T02:48:38.664Z,73.45
2023-04-23T02:51:36.535Z,73.49
2023-04-23T02:54:34.089Z,73.46
2023-04-23T02:57:31.861Z,73.65
2023-04-23T03:00:29.280Z,73.85
2023-04-23T03:03:27.602Z,73.96
2023-04-23T03:06:25.085Z,73.91
2023-04-23T03:09:23.005Z,74.08
2023-04-23T03:12:20.420Z,74.16
2023-04-23T03:15:18.658Z,74.21
2023-04-23T03:18:16.120Z,74.25
2023-04-23T03:21:14.188Z,74.28
2023-04-23T03:24:12.685Z,74.27
2023-04-23T03:27:10.067Z,74.40
2023-04-23T03:30:08.711Z,74.48
2023-04-23T03:33:06.120Z,74.51
2023-04-23T03:36:03.958Z,74.47
2023-04-23T03:39:02.365Z,74.38
2023-04-23T03:42:00.428Z,74.34
2023-04-23T03:44:57.864Z,74.44
2023-04-23T03:47:55.698Z,74.50
2023-04-23T03:50:53.620Z,74.52
2023-04-23T03:53:52.014Z,74.71
2023-04-23T03:56:49.864Z,74.82
2023-04-23T03:59:47.304Z,74.81
2023-04-23T04:02:45.170Z,74.92
2023-04-23T04:05:42.793Z,74.89
2023-04-23T04:08:40.866Z,74.93
2023-04-23T04:11:38.720Z,75.10
2023-04-23T04:14:36.636Z,75.24
2023-04-23T04:17:34.602Z,75.23
2023-04-23T04:20:32.515Z,75.24
2023-04-23T04:23:29.973Z,75.30
2023-04-23T04:26:27.839Z,75.38
2023-04-23T04:29:25.237Z,75.38
2023-04-23T04:32:23.947Z,75.48
2023-04-23T04:35:21.441Z,75.54
2023-04-23T04:38:20.447Z,75.55
2023-04-23T04:41:18.130Z,75.48
2023-04-23T04:44:16.977Z,75.64
2023-04-23T04:47:16.351Z,75.76
2023-04-23T04:50:14.282Z,75.90
2023-04-23T04:53:11.678Z,75.86
2023-04-23T04:56:09.507Z,75.89
2023-04-23T04:59:07.467Z,75.99
2023-04-23T05:02:05.024Z,76.13
2023-04-23T05:05:02.924Z,76.12
2023-04-23T05:08:02.329Z,76.10
2023-04-23T05:11:01.523Z,76.11
2023-04-23T05:13:58.985Z,76.07
2023-04-23T05:16:56.841Z,76.09
2023-04-23T05:19:54.616Z,76.07
2023-04-23T05:22:52.971Z,75.99
2023-04-23T05:25:54.217Z,75.69
2023-04-23T05:28:51.884Z,75.44
2023-04-23T05:31:49.708Z,75.26
2023-04-23T05:34:47.653Z,75.03
2023-04-23T05:37:45.060Z,74.41
2023-04-23T05:40:42.952Z,73.77
2023-04-23T05:43:40.950Z,73.24
2023-04-23T05:46:38.902Z,72.97
2023-04-23T05:49:36.973Z,72.33
2023-04-23T05:52:37.828Z,71.64
2023-04-23T05:55:35.802Z,71.07
2023-04-23T05:58:33.661Z,70.80
2023-04-23T06:01:31.144Z,70.19
2023-04-23T06:04:29.266Z,69.72
2023-04-23T06:07:26.995Z,69.40
2023-04-23T06:10:24.841Z,68.94
2023-04-23T06:13:22.242Z,68.39
2023-04-23T06:16:19.996Z,67.91
2023-04-23T06:19:17.956Z,67.56
2023-04-23T06:22:16.011Z,66.99
2023-04-23T06:25:13.891Z,66.50
2023-04-23T06:28:11.755Z,66.16
2023-04-23T06:31:09.242Z,65.83
2023-04-23T06:34:07.075Z,65.06
2023-04-23T06:37:04.520Z,64.34
2023-04-23T06:40:02.309Z,63.61
2023-04-23T06:43:00.438Z,62.97
2023-04-23T06:45:58.751Z,62.30
2023-04-23T06:48:56.231Z,61.58
2023-04-23T06:51:55.286Z,60.44
2023-04-23T06:54:54.537Z,60.07
2023-04-23T06:57:52.391Z,59.48
2023-04-23T07:00:49.840Z,58.58
2023-04-23T07:03:49.998Z,57.92
2023-04-23T07:06:47.496Z,57.23
2023-04-23T07:09:45.510Z,56.59
2023-04-23T07:12:43.404Z,55.78
2023-04-23T07:15:41.740Z,55.02
2023-04-23T07:18:39.860Z,53.67
2023-04-23T07:21:37.278Z,52.98
2023-04-23T07:24:35.131Z,52.08
2023-04-23T07:27:33.063Z,51.25
2023-04-23T07:30:31.059Z,50.40
2023-04-23T07:33:29.316Z,49.62
2023-04-23T07:36:28.521Z,48.63
2023-04-23T07:39:26.077Z,48.44
2023-04-23T07:42:24.058Z,47.83
2023-04-23T07:45:22.007Z,46.81
2023-04-23T07:48:19.417Z,46.36
2023-04-23T07:51:18.172Z,45.58
2023-04-23T07:54:15.735Z,44.58
2023-04-23T07:57:13.596Z,43.56
2023-04-23T08:00:11.521Z,43.79
2023-04-23T08:03:09.589Z,42.69
2023-04-23T08:06:07.231Z,42.31
2023-04-23T08:09:07.033Z,41.28
2023-04-23T08:12:04.476Z,40.81
2023-04-23T08:15:02.296Z,40.62
2023-04-23T08:17:59.744Z,40.51
2023-04-23T08:20:57.990Z,40.36
2023-04-23T08:23:55.481Z,40.70
2023-04-23T08:26:53.991Z,40.12
2023-04-23T08:29:52.228Z,40.26
2023-04-23T08:32:49.933Z,40.23
2023-04-23T08:35:47.442Z,40.25
2023-04-23T08:38:45.253Z,39.31
2023-04-23T08:41:43.420Z,38.70
2023-04-23T08:44:41.073Z,38.64
2023-04-23T08:47:40.601Z,37.43
2023-04-23T08:50:38.290Z,36.61
2023-04-23T08:53:36.813Z,36.32
2023-04-23T08:56:37.266Z,36.08
2023-04-23T08:59:34.898Z,35.29
2023-04-23T09:02:32.443Z,33.88
2023-04-23T09:05:30.168Z,33.79
2023-04-23T09:08:27.574Z,33.07
2023-04-23T09:11:25.495Z,32.86
2023-04-23T09:14:29.969Z,32.14
2023-04-23T09:17:27.396Z,32.04
2023-04-23T09:20:25.087Z,31.92
2023-04-23T09:23:22.543Z,31.87
2023-04-23T09:26:20.125Z,32.43
2023-04-23T09:29:19.343Z,32.12
2023-04-23T09:32:16.888Z,32.39
2023-04-23T09:35:15.595Z,32.01
2023-04-23T09:38:13.022Z,32.67
2023-04-23T09:41:10.697Z,32.31
2023-04-23T09:44:08.903Z,32.23
2023-04-23T09:47:06.650Z,32.46
2023-04-23T09:50:04.391Z,32.25
2023-04-23T09:53:01.827Z,31.56
2023-04-23T09:55:59.489Z,31.94
2023-04-23T09:58:56.957Z,31.00
2023-04-23T10:01:54.648Z,31.50
2023-04-23T10:04:53.388Z,30.95
2023-04-23T10:07:54.078Z,30.73
2023-04-23T10:11:03.109Z,30.56
2023-04-23T10:14:07.479Z,30.11
2023-04-23T10:17:05.323Z,29.39
2023-04-23T10:20:03.619Z,29.11
2023-04-23T10:23:01.478Z,28.49
2023-04-23T10:25:58.896Z,28.63
2023-04-23T10:28:56.527Z,28.78
2023-04-23T10:31:54.164Z,27.98
2023-04-23T10:34:51.677Z,28.04
2023-04-23T10:37:49.642Z,27.85
2023-04-23T10:40:47.100Z,28.00
2023-04-23T10:43:44.870Z,27.40
2023-04-23T10:46:42.295Z,27.53
2023-04-23T10:49:40.279Z,27.78
2023-04-23T10:52:38.111Z,27.27
2023-04-23T10:55:35.589Z,26.99
2023-04-23T10:58:33.234Z,26.85
2023-04-23T11:01:31.626Z,26.41
2023-04-23T11:04:29.994Z,26.59
2023-04-23T11:07:27.560Z,26.31
2023-04-23T11:10:25.256Z,26.25
2023-04-23T11:13:23.183Z,26.05
2023-04-23T11:16:21.652Z,25.93
2023-04-23T11:19:20.699Z,25.66
2023-04-23T11:22:19.476Z,25.93
2023-04-23T11:25:17.134Z,26.49
2023-04-23T11:28:14.572Z,26.44
2023-04-23T11:31:12.603Z,26.76
2023-04-23T11:34:12.106Z,26.91
2023-04-23T11:37:10.243Z,27.69
2023-04-23T11:40:08.518Z,27.83
2023-04-23T11:43:05.980Z,28.03
2023-04-23T11:46:04.318Z,28.03
2023-04-23T11:49:02.028Z,28.28
2023-04-23T11:51:59.802Z,28.17
2023-04-23T11:54:57.408Z,28.28
2023-04-23T11:57:55.135Z,28.34
2023-04-23T12:00:52.884Z,28.30
2023-04-23T12:03:50.482Z,28.73
2023-04-23T12:06:48.294Z,28.65
2023-04-23T12:09:45.773Z,29.09
2023-04-23T12:12:43.571Z,29.08
2023-04-23T12:15:41.059Z,29.25
2023-04-23T12:18:39.800Z,29.12
2023-04-23T12:21:37.490Z,29.00
2023-04-23T12:24:34.948Z,28.90
2023-04-23T12:27:34.118Z,28.82
2023-04-23T12:30:31.512Z,29.07
2023-04-23T12:33:29.252Z,29.08
2023-04-23T12:36:26.818Z,29.25
2023-04-23T12:39:24.485Z,29.52
2023-04-23T12:42:21.974Z,29.82
2023-04-23T12:45:19.694Z,29.36
2023-04-23T12:48:17.481Z,29.45
2023-04-23T12:51:14.875Z,29.76
2023-04-23T12:54:12.681Z,30.09
2023-04-23T12:57:10.100Z,30.02
2023-04-23T13:00:11.116Z,29.90
2023-04-23T13:03:08.757Z,30.10
2023-04-23T13:06:08.284Z,30.51
2023-04-23T13:09:05.745Z,29.98
2023-04-23T13:12:03.711Z,30.06
2023-04-23T13:15:01.453Z,30.14
2023-04-23T13:17:59.248Z,30.40
2023-04-23T13:20:57.921Z,30.38
2023-04-23T13:23:55.795Z,30.79
2023-04-23T13:26:53.367Z,30.75
2023-04-23T13:29:50.817Z,30.91
2023-04-23T13:32:48.526Z,30.70
2023-04-23T13:35:46.359Z,30.84
2023-04-23T13:38:43.760Z,31.03
2023-04-23T13:41:41.467Z,31.26
2023-04-23T13:44:38.855Z,31.59
2023-04-23T13:47:37.950Z,31.43
2023-04-23T13:50:35.932Z,31.71
2023-04-23T13:53:34.491Z,31.72
2023-04-23T13:56:32.153Z,31.81
2023-04-23T13:59:29.690Z,31.98
2023-04-23T14:02:27.440Z,32.09
2023-04-23T14:05:25.073Z,32.48
2023-04-23T14:08:22.828Z,32.80
2023-04-23T14:11:20.710Z,32.42
2023-04-23T14:14:18.475Z,32.47
2023-04-23T14:17:16.085Z,32.71
2023-04-23T14:20:15.757Z,32.79
2023-04-23T14:23:13.484Z,32.71
2023-04-23T14:26:11.330Z,32.69
2023-04-23T14:29:09.150Z,32.80
2023-04-23T14:32:07.260Z,32.74
2023-04-23T14:35:05.188Z,33.08
2023-04-23T14:38:03.470Z,32.66
2023-04-23T14:41:00.944Z,32.72
2023-04-23T14:43:58.701Z,32.73
2023-04-23T14:46:56.624Z,32.89
2023-04-23T14:49:54.477Z,33.07
2023-04-23T14:52:52.315Z,32.73
2023-04-23T14:55:49.930Z,32.77
2023-04-23T14:58:47.348Z,32.71
2023-04-23T15:01:45.144Z,32.69
2023-04-23T15:04:43.652Z,32.64
2023-04-23T15:07:41.107Z,32.95
2023-04-23T15:10:38.793Z,32.84
2023-04-23T15:13:36.326Z,33.14
2023-04-23T15:19:34.937Z,33.38
2023-04-23T15:22:32.864Z,33.43
2023-04-23T15:25:30.328Z,33.46
2023-04-23T15:28:27.884Z,33.59
2023-04-23T15:31:25.351Z,33.64
2023-04-23T15:34:22.950Z,33.97
2023-04-23T15:37:21.799Z,34.21
2023-04-23T15:40:19.225Z,34.32
2023-04-23T15:43:16.900Z,34.45
2023-04-23T15:46:14.431Z,34.63
2023-04-23T15:49:12.390Z,34.69
2023-04-23T15:52:10.113Z,35.09
2023-04-23T15:55:07.613Z,35.62
2023-04-23T15:58:05.567Z,35.68
2023-04-23T16:01:03.201Z,35.52
2023-04-23T16:04:10.329Z,35.74
2023-04-23T16:07:09.991Z,35.80
2023-04-23T16:10:07.490Z,35.98
2023-04-23T16:13:07.096Z,36.07
2023-04-23T16:16:06.028Z,36.54
2023-04-23T16:19:03.923Z,36.98
2023-04-23T16:22:01.361Z,36.81
2023-04-23T16:25:00.088Z,36.99
2023-04-23T16:27:57.937Z,36.99
2023-04-23T16:30:55.836Z,36.99
2023-04-23T16:33:53.681Z,37.27
2023-04-23T16:36:51.578Z,37.20
2023-04-23T16:39:49.633Z,37.09
2023-04-23T16:42:49.034Z,37.05
2023-04-23T16:45:48.870Z,37.13
2023-04-23T16:48:47.474Z,37.11
2023-04-23T16:51:45.131Z,37.19
2023-04-23T16:54:44.506Z,37.53
2023-04-23T16:57:42.583Z,37.76
2023-04-23T17:00:40.559Z,37.60
2023-04-23T17:03:39.696Z,37.64
2023-04-23T17:06:38.136Z,37.68
2023-04-23T17:09:35.680Z,38.33
2023-04-23T17:12:34.179Z,38.39
2023-04-23T17:15:32.560Z,39.12
2023-04-23T17:18:30.119Z,39.77
2023-04-23T17:21:27.942Z,40.26
2023-04-23T17:24:25.489Z,40.73
2023-04-23T17:27:24.510Z,41.15
2023-04-23T17:30:24.995Z,41.25
2023-04-23T17:33:22.864Z,41.74
2023-04-23T17:36:21.649Z,42.18
2023-04-23T17:39:23.611Z,42.26
2023-04-23T17:42:23.420Z,42.48
2023-04-23T17:45:21.477Z,42.82
2023-04-23T17:48:22.966Z,43.17
2023-04-23T17:51:22.156Z,43.41
2023-04-23T17:54:21.048Z,43.61
2023-04-23T17:57:19.841Z,43.99
2023-04-23T18:00:18.728Z,44.34
2023-04-23T18:03:19.237Z,44.55
2023-04-23T18:06:18.258Z,44.74
2023-04-23T18:09:16.952Z,45.03
2023-04-23T18:12:15.841Z,45.34
2023-04-23T18:15:14.374Z,45.80
2023-04-23T18:18:13.027Z,46.04
2023-04-23T18:21:10.950Z,46.11
2023-04-23T18:24:09.061Z,46.39
2023-04-23T18:27:07.102Z,46.77
2023-04-23T18:30:06.056Z,46.93
2023-04-23T18:33:05.977Z,47.66
2023-04-23T18:36:05.048Z,47.51
2023-04-23T18:39:11.625Z,47.93
2023-04-23T18:42:10.103Z,48.56
2023-04-23T18:45:08.283Z,48.79
2023-04-23T18:48:07.380Z,48.68
2023-04-23T18:51:06.091Z,49.00
2023-04-23T18:54:04.460Z,49.03
2023-04-23T18:57:03.460Z,49.27
2023-04-23T19:00:03.166Z,49.89
2023-04-23T19:03:06.753Z,50.39
2023-04-23T19:06:10.264Z,50.51
2023-04-23T19:09:08.441Z,51.22
2023-04-23T19:12:08.700Z,51.48
2023-04-23T19:15:07.265Z,51.83
2023-04-23T19:18:08.706Z,52.11
2023-04-23T19:21:07.221Z,52.38
2023-04-23T19:24:05.169Z,52.60
2023-04-23T19:27:04.259Z,53.09
2023-04-23T19:30:03.496Z,53.40
2023-04-23T19:33:01.678Z,53.81
2023-04-23T19:36:00.226Z,54.23
2023-04-23T19:38:59.653Z,54.53
2023-04-23T19:41:58.161Z,54.80
2023-04-23T19:44:56.900Z,55.15
2023-04-23T19:47:55.380Z,55.44
2023-04-23T19:50:55.001Z,55.77
2023-04-23T19:53:55.541Z,55.91
2023-04-23T19:56:53.706Z,56.25
2023-04-23T19:59:52.094Z,56.51
2023-04-23T20:02:49.625Z,56.76
2023-04-23T20:05:48.737Z,57.00
2023-04-23T20:09:06.502Z,57.14
2023-04-23T20:12:05.020Z,57.36
2023-04-23T20:15:03.147Z,57.57
2023-04-23T20:18:01.226Z,57.53
2023-04-23T20:20:58.746Z,57.58
2023-04-23T20:23:56.649Z,58.15
2023-04-23T20:26:54.546Z,58.47
2023-04-23T20:29:55.335Z,58.22
2023-04-23T20:32:53.314Z,58.34
2023-04-23T20:35:51.342Z,58.66
2023-04-23T20:38:49.263Z,58.82
2023-04-23T20:41:46.753Z,58.88
2023-04-23T20:44:46.202Z,58.99
2023-04-23T20:47:44.553Z,59.08
2023-04-23T20:50:43.629Z,59.02
2023-04-23T20:53:41.031Z,59.33
2023-04-23T20:56:38.851Z,59.54
2023-04-23T20:59:36.837Z,59.74
2023-04-23T21:02:36.243Z,59.96
2023-04-23T21:05:34.309Z,60.00
2023-04-23T21:08:31.718Z,60.18
2023-04-23T21:11:29.835Z,60.46
2023-04-23T21:14:27.712Z,60.82
2023-04-23T21:17:25.927Z,61.02
2023-04-23T21:20:23.967Z,60.89
2023-04-23T21:23:21.839Z,60.32
2023-04-23T21:26:19.616Z,60.55
2023-04-23T21:29:17.035Z,60.62
2023-04-23T21:32:14.941Z,60.44
2023-04-23T21:35:12.361Z,60.79
2023-04-23T21:38:10.235Z,60.87
2023-04-23T21:41:08.125Z,61.05
2023-04-23T21:44:05.810Z,61.11
2023-04-23T21:47:04.727Z,61.16
2023-04-23T21:50:02.246Z,61.19
2023-04-23T21:53:00.316Z,61.22
2023-04-23T21:55:57.781Z,61.23
2023-04-23T21:58:55.548Z,61.26
2023-04-23T22:01:53.463Z,61.38
2023-04-23T22:04:51.076Z,61.41
2023-04-23T22:07:49.070Z,61.47
2023-04-23T22:10:47.130Z,61.31
2023-04-23T22:13:44.593Z,61.12
2023-04-23T22:16:42.477Z,60.97
2023-04-23T22:19:40.058Z,61.25
2023-04-23T22:22:38.210Z,61.31
2023-04-23T22:25:35.656Z,61.42
2023-04-23T22:28:33.521Z,61.85
2023-04-23T22:31:31.539Z,62.02
2023-04-23T22:34:29.088Z,62.26
2023-04-23T22:37:26.931Z,62.60
2023-04-23T22:40:24.494Z,62.74
2023-04-23T22:43:22.570Z,62.80
2023-04-23T22:46:20.220Z,63.04
2023-04-23T22:49:19.557Z,63.16
2023-04-23T22:52:17.926Z,63.39
2023-04-23T22:55:16.093Z,63.58
2023-04-23T22:58:13.879Z,63.86
2023-04-23T23:01:11.852Z,63.98
2023-04-23T23:04:09.555Z,64.17
2023-04-23T23:07:07.574Z,64.41
2023-04-23T23:10:09.021Z,64.64
2023-04-23T23:13:06.587Z,64.69
2023-04-23T23:16:06.546Z,64.88
2023-04-23T23:19:04.274Z,65.12
2023-04-23T23:22:02.262Z,65.44
2023-04-23T23:24:59.909Z,65.52
2023-04-23T23:27:57.883Z,65.59
2023-04-23T23:30:55.709Z,65.69
2023-04-23T23:33:53.637Z,65.82
2023-04-23T23:36:52.128Z,66.06
2023-04-23T23:39:50.074Z,66.25
2023-04-23T23:42:47.663Z,66.46
2023-04-23T23:45:45.618Z,66.55
2023-04-23T23:48:43.192Z,66.71
2023-04-23T23:51:41.250Z,66.91
2023-04-23T23:54:39.324Z,67.61
2023-04-23T23:57:37.521Z,67.69
